Graham, North Carolina
Current Conditions -  °F | °C
As of 5:54 PM on Wednesday 17 Dec 2014 (Local Time) from KBUY Reporting Station
Clear Clear  
Wind Chill: 47°   Ceiling: Unl
Heat Index: 49°   Visibility: 10mi
Dew Point: 31°   Wind: 5mph
Humidity: 50%   Direction: 270°W
Pressure: 30.05"   Gusts: NA
Location:  36.07°N, 79.4°W
Report Text: KBUY 172254Z AUTO 27004KT 10SM CLR 09/M01 A3005 RMK AO2 SLP176 T00941006
Loading
Personal Weather Stations






























Interactive Weather Map New forecast layout! Learn more

10-Day Weather Forecast

Advertisements
Track Severe Weather on mobile